Time;durP1;ratioP1;P1;durP2;ratioP2;P2;SDS_P1;SDS_P2;PMS_P1;PMS_P2;Temp;Humidity;BMP_temperature;BMP_pressure;BME280_temperature;BME280_humidity;BME280_pressure;Samples;Min_cycle;Max_cycle;Signal;HPM_P1;HPM_P2
2022/06/20 00:00:52;;;;;;;6.57;1.83;;;;;;;;;;5050408;28;20080;-69
2022/06/20 00:03:21;;;;;;;6.70;1.75;;;;;;;;;;5053183;28;20198;-69
2022/06/20 00:05:47;;;;;;;7.68;2.15;;;;;;;;;;5051693;28;20053;-69
2022/06/20 00:08:13;;;;;;;7.15;1.95;;;;;;;;;;5033826;28;20060;-69
2022/06/20 00:10:40;;;;;;;7.53;1.92;;;;;;;;;;5052778;28;20508;-69
2022/06/20 00:13:09;;;;;;;6.45;2.03;;;;;;;;;;5034567;28;20041;-69
2022/06/20 00:15:36;;;;;;;6.88;1.95;;;;;;;;;;5052208;28;20041;-69
2022/06/20 00:18:04;;;;;;;7.35;1.92;;;;;;;;;;5051395;28;20033;-69
2022/06/20 00:20:30;;;;;;;6.72;2.17;;;;;;;;;;5052108;28;20379;-68
2022/06/20 00:22:57;;;;;;;6.00;1.70;;;;;;;;;;5051104;28;20394;-69
2022/06/20 00:25:23;;;;;;;4.00;1.75;;;;;;;;;;5051522;28;20486;-69
2022/06/20 00:27:50;;;;;;;7.43;1.90;;;;;;;;;;5051525;28;20036;-69
2022/06/20 00:30:18;;;;;;;8.45;1.58;;;;;;;;;;5052738;28;20040;-69
2022/06/20 00:32:44;;;;;;;4.70;1.60;;;;;;;;;;5052495;28;20037;-69
2022/06/20 00:35:11;;;;;;;4.53;1.75;;;;;;;;;;5050251;28;20561;-69
2022/06/20 00:37:37;;;;;;;4.90;1.90;;;;;;;;;;5051402;28;20094;-69
2022/06/20 00:40:04;;;;;;;4.05;1.45;;;;;;;;;;5051030;28;20051;-69
2022/06/20 00:42:30;;;;;;;6.72;1.70;;;;;;;;;;5051975;28;20083;-69
2022/06/20 00:44:57;;;;;;;3.95;1.60;;;;;;;;;;5034218;28;20501;-69
2022/06/20 00:47:26;;;;;;;6.53;1.80;;;;;;;;;;5050613;28;20052;-69
2022/06/20 00:49:55;;;;;;;5.38;1.60;;;;;;;;;;5050102;28;20045;-69
2022/06/20 00:52:29;;;;;;;5.78;1.60;;;;;;;;;;5050116;28;20033;-69
2022/06/20 00:55:04;;;;;;;5.60;1.67;;;;;;;;;;5049837;28;20033;-69
2022/06/20 00:58:06;;;;;;;4.85;1.95;;;;;;;;;;5051035;28;20064;-69
2022/06/20 01:00:33;;;;;;;6.32;1.98;;;;;;;;;;4993113;28;20084;-69
2022/06/20 01:03:06;;;;;;;7.63;2.10;;;;;;;;;;5021196;28;20386;-69
2022/06/20 01:05:36;;;;;;;6.40;2.00;;;;;;;;;;5033909;28;20041;-69
2022/06/20 01:08:11;;;;;;;7.65;2.05;;;;;;;;;;5049595;28;20087;-69
2022/06/20 01:10:46;;;;;;;7.80;2.30;;;;;;;;;;5050374;28;20494;-69
2022/06/20 01:13:16;;;;;;;4.13;2.22;;;;;;;;;;5049640;28;20079;-69
2022/06/20 01:15:44;;;;;;;7.10;1.95;;;;;;;;;;5051515;28;20048;-69
2022/06/20 01:18:18;;;;;;;5.78;1.67;;;;;;;;;;5032304;28;20041;-69
2022/06/20 01:20:45;;;;;;;10.75;2.10;;;;;;;;;;5050793;28;20045;-69
2022/06/20 01:23:17;;;;;;;5.45;1.70;;;;;;;;;;5050841;28;20502;-69
2022/06/20 01:25:49;;;;;;;6.25;1.67;;;;;;;;;;5048772;28;20049;-69
2022/06/20 01:28:17;;;;;;;10.00;1.70;;;;;;;;;;5049809;28;20132;-69
2022/06/20 01:30:45;;;;;;;4.22;1.70;;;;;;;;;;5049184;28;20051;-69
2022/06/20 01:33:18;;;;;;;5.63;2.03;;;13.20;99.90;;;;;;5050270;28;20381;-69
2022/06/20 01:38:29;;;;;;;7.18;1.80;;;12.90;99.90;;;;;;5050233;28;20106;-69
2022/06/20 01:43:40;;;;;;;9.10;1.90;;;12.80;99.90;;;;;;5049855;28;20045;-69
2022/06/20 01:46:09;;;;;;;5.75;1.75;;;12.70;99.90;;;;;;5010727;28;1090200;-69
2022/06/20 01:48:44;;;;;;;7.07;2.00;;;12.70;99.90;;;;;;5051790;28;20059;-69
2022/06/20 01:51:20;;;;;;;;;;;12.60;99.90;;;;;;5051874;28;20183;-69
2022/06/20 01:53:48;;;;;;;5.72;2.05;;;12.60;99.90;;;;;;5049680;28;20293;-69
2022/06/20 01:56:14;;;;;;;8.63;2.35;;;12.50;99.90;;;;;;5051694;28;20045;-69
2022/06/20 01:58:46;;;;;;;6.35;2.05;;;12.50;99.90;;;;;;5050468;28;20041;-69
2022/06/20 02:01:14;;;;;;;5.22;1.77;;;12.40;99.90;;;;;;5049576;28;20051;-69
2022/06/20 02:03:43;;;;;;;9.02;2.47;;;12.40;99.90;;;;;;5050245;28;20045;-69
2022/06/20 02:06:10;;;;;;;4.57;1.85;;;12.40;99.90;;;;;;5050665;28;20167;-69
2022/06/20 02:08:39;;;;;;;10.60;2.10;;;12.40;99.90;;;;;;5050727;28;20068;-69
2022/06/20 02:11:17;;;;;;;6.40;2.10;;;12.40;99.90;;;;;;5049790;28;20041;-69
2022/06/20 02:13:46;;;;;;;9.52;2.35;;;12.40;99.90;;;;;;5049358;28;20044;-69
2022/06/20 02:16:16;;;;;;;6.00;2.33;;;12.30;99.90;;;;;;5051437;28;20037;-68
2022/06/20 02:18:43;;;;;;;7.40;2.03;;;;;;;;;;5051466;28;20098;-68
2022/06/20 02:21:15;;;;;;;4.38;1.70;;;12.30;99.90;;;;;;5053138;28;20501;-68
2022/06/20 02:23:45;;;;;;;7.55;2.42;;;12.20;99.90;;;;;;5055103;28;20167;-68
2022/06/20 02:26:13;;;;;;;7.88;2.35;;;12.20;99.90;;;;;;5053676;28;20445;-68
2022/06/20 02:28:47;;;;;;;9.65;2.50;;;12.10;99.90;;;;;;5053010;28;20071;-68
2022/06/20 02:31:13;;;;;;;7.03;2.50;;;;;;;;;;5053391;28;20490;-68
2022/06/20 02:33:39;;;;;;;8.07;2.55;;;;;;;;;;5053679;28;20037;-68
2022/06/20 02:36:06;;;;;;;10.30;3.03;;;12.00;99.90;;;;;;5052361;28;20053;-68
2022/06/20 02:38:34;;;;;;;10.23;2.53;;;12.00;99.90;;;;;;5053431;28;20045;-69
2022/06/20 02:41:00;;;;;;;9.70;3.15;;;;;;;;;;5052956;28;20504;-69
2022/06/20 02:43:31;;;;;;;6.18;2.40;;;;;;;;;;5052718;28;20053;-68
2022/06/20 02:45:58;;;;;;;7.10;3.05;;;11.90;99.90;;;;;;5052678;28;20059;-68
2022/06/20 02:48:27;;;;;;;8.98;2.17;;;11.90;99.90;;;;;;5052416;28;20048;-68
2022/06/20 02:50:56;;;;;;;8.25;2.20;;;11.80;99.90;;;;;;5054047;28;20449;-68
2022/06/20 02:53:22;;;;;;;6.18;2.63;;;;;;;;;;5054466;28;20106;-68
2022/06/20 02:55:51;;;;;;;5.15;2.47;;;11.80;99.90;;;;;;5053471;28;20048;-69
2022/06/20 02:58:21;;;;;;;6.75;2.30;;;11.80;99.90;;;;;;5054663;28;20045;-68
2022/06/20 03:00:55;;;;;;;6.20;2.40;;;11.60;99.90;;;;;;5052752;28;20049;-68
2022/06/20 03:03:31;;;;;;;5.93;2.65;;;11.80;99.90;;;;;;5035591;28;20037;-69
2022/06/20 03:05:57;;;;;;;7.53;2.88;;;;;;;;;;5052749;28;20045;-69
2022/06/20 03:08:24;;;;;;;7.55;2.65;;;11.60;99.90;;;;;;5036710;28;20068;-68
2022/06/20 03:10:52;;;;;;;6.07;2.60;;;11.70;99.90;;;;;;5051740;28;20037;-68
2022/06/20 03:13:19;;;;;;;6.68;2.65;;;11.80;99.90;;;;;;5052973;28;20072;-68
2022/06/20 03:15:45;;;;;;;9.50;2.83;;;;;;;;;;5053649;28;20044;-68
2022/06/20 03:18:14;;;;;;;6.35;2.95;;;11.70;99.90;;;;;;5051914;28;20396;-68
2022/06/20 03:20:40;;;;;;;7.38;2.97;;;11.70;99.90;;;;;;5054210;28;20044;-69
2022/06/20 03:23:23;;;;;;;9.23;2.72;;;11.60;99.90;;;;;;5052137;28;20041;-68
2022/06/20 03:25:49;;;;;;;6.80;2.70;;;11.60;99.90;;;;;;5053302;28;20103;-69
2022/06/20 03:28:19;;;;;;;8.68;2.55;;;11.60;99.90;;;;;;5052602;28;20159;-68
2022/06/20 03:30:45;;;;;;;7.47;3.03;;;;;;;;;;5050426;28;20045;-69
2022/06/20 03:33:14;;;;;;;7.32;2.75;;;11.60;99.90;;;;;;5053363;28;20490;-69
2022/06/20 03:35:44;;;;;;;8.90;3.70;;;11.60;99.90;;;;;;5052336;28;20045;-69
2022/06/20 03:38:13;;;;;;;9.32;3.10;;;11.60;99.90;;;;;;5051304;28;20040;-69
2022/06/20 03:40:39;;;;;;;10.38;3.75;;;;;;;;;;5052334;28;20052;-69
2022/06/20 03:43:07;;;;;;;8.65;3.22;;;11.60;99.90;;;;;;5051921;28;20045;-69
2022/06/20 03:45:38;;;;;;;12.05;3.28;;;11.70;99.90;;;;;;5034902;28;20118;-69
2022/06/20 03:48:09;;;;;;;6.63;2.95;;;11.70;99.90;;;;;;5051672;28;20049;-69
2022/06/20 03:50:49;;;;;;;11.82;3.50;;;11.70;99.90;;;;;;5052199;28;20102;-69
2022/06/20 03:53:29;;;;;;;7.80;3.53;;;;;;;;;;5052519;28;20497;-69
2022/06/20 03:56:13;;;;;;;9.45;3.10;;;11.80;99.90;;;;;;5051732;28;20124;-69
2022/06/20 03:58:46;;;;;;;8.25;3.42;;;11.80;99.90;;;;;;5051497;28;20040;-69
2022/06/20 04:01:18;;;;;;;9.82;3.17;;;11.80;99.90;;;;;;5051514;28;20490;-68
2022/06/20 04:03:47;;;;;;;8.90;3.70;;;;;;;;;;5051732;28;20045;-68
2022/06/20 04:06:29;;;;;;;11.15;3.58;;;11.90;99.90;;;;;;5051044;28;20048;-68
2022/06/20 04:12:31;;;;;;;8.25;3.47;;;12.00;99.90;;;;;;5051158;28;20053;-68
2022/06/20 04:15:13;;;;;;;12.38;3.60;;;12.10;99.90;;;;;;5052199;28;20086;-68
2022/06/20 04:20:36;;;;;;;11.77;3.80;;;12.20;99.90;;;;;;5050926;28;20055;-68
2022/06/20 04:23:07;;;;;;;11.30;3.95;;;12.30;99.90;;;;;;5052483;28;20044;-68
2022/06/20 04:25:38;;;;;;;11.13;3.60;;;12.30;99.90;;;;;;5051539;28;20160;-68
2022/06/20 04:28:24;;;;;;;13.13;3.45;;;12.70;99.90;;;;;;5050040;28;20041;-68
2022/06/20 04:30:57;;;;;;;9.73;3.63;;;;;;;;;;5052049;28;20041;-68
2022/06/20 04:33:30;;;;;;;9.13;3.38;;;12.40;99.90;;;;;;5051412;28;20049;-68
2022/06/20 04:36:26;;;;;;;8.95;3.42;;;12.50;99.90;;;;;;5050298;28;20382;-68
2022/06/20 04:39:01;;;;;;;9.25;3.17;;;12.50;99.90;;;;;;5050065;28;20079;-68
2022/06/20 04:41:38;;;;;;;;;;;12.50;99.90;;;;;;5050614;28;20529;-68
2022/06/20 04:44:09;;;;;;;8.05;3.22;;;12.60;99.90;;;;;;5050875;28;19924;-69
2022/06/20 04:46:44;;;;;;;9.57;2.90;;;12.60;99.90;;;;;;5052317;28;20140;-68
2022/06/20 04:49:15;;;;;;;8.13;3.40;;;12.70;99.90;;;;;;5050240;28;20060;-68
2022/06/20 04:51:44;;;;;;;8.73;3.78;;;;;;;;;;5052333;28;20549;-68
2022/06/20 04:54:15;;;;;;;8.43;3.65;;;12.80;99.90;;;;;;5050965;28;20064;-68
2022/06/20 04:56:42;;;;;;;17.20;5.40;;;;;;;;;;5051558;28;20386;-69
2022/06/20 04:59:17;;;;;;;15.07;4.50;;;13.00;99.90;;;;;;5050591;28;20033;-69
2022/06/20 05:01:44;;;;;;;13.88;3.80;;;;;;;;;;5050657;28;20128;-69
2022/06/20 05:04:10;;;;;;;13.95;4.63;;;;;;;;;;5050640;28;20045;-69
2022/06/20 05:06:38;;;;;;;16.95;4.72;;;13.20;99.90;;;;;;5052049;28;20040;-69
2022/06/20 05:09:13;;;;;;;11.27;3.88;;;13.30;99.90;;;;;;5033319;28;20067;-69
2022/06/20 05:11:42;;;;;;;10.75;3.67;;;;;;;;;;5050926;28;20041;-69
2022/06/20 05:14:11;;;;;;;11.40;3.90;;;;;;;;;;5051753;28;20083;-69
2022/06/20 05:16:42;;;;;;;13.40;4.25;;;;;;;;;;5051320;28;20072;-69
2022/06/20 05:19:13;;;;;;;9.88;3.60;;;;;;;;;;5051552;28;20056;-69
2022/06/20 05:21:41;;;;;;;9.00;3.75;;;13.90;99.90;;;;;;5050790;28;20048;-69
2022/06/20 05:24:19;;;;;;;11.40;3.90;;;14.00;99.90;;;;;;5039512;28;20450;-69
2022/06/20 05:26:49;;;;;;;12.43;3.35;;;14.10;99.90;;;;;;5051812;28;20052;-69
2022/06/20 05:29:22;;;;;;;13.30;4.53;;;14.10;99.90;;;;;;5050653;28;20048;-69
2022/06/20 05:31:52;;;;;;;11.95;3.85;;;14.20;99.90;;;;;;5051124;28;20037;-70
2022/06/20 05:34:18;;;;;;;8.57;2.90;;;;;;;;;;5051072;28;20579;-69
2022/06/20 05:36:57;;;;;;;12.50;3.30;;;14.50;99.90;;;;;;5050568;28;20041;-69
2022/06/20 05:39:32;;;;;;;10.57;3.63;;;14.50;99.90;;;;;;5051922;28;20064;-69
2022/06/20 05:41:59;;;;;;;9.80;3.75;;;;;;;;;;5036014;28;20421;-69
2022/06/20 05:44:25;;;;;;;12.60;3.00;;;;;;;;;;5038217;28;20056;-69
2022/06/20 05:46:54;;;;;;;14.00;3.47;;;;;;;;;;5034752;28;20465;-69
2022/06/20 05:49:28;;;;;;;9.93;3.13;;;14.90;99.90;;;;;;5042847;28;20769;-68
2022/06/20 05:51:58;;;;;;;12.18;4.05;;;14.90;99.90;;;;;;5048718;28;20474;-68
2022/06/20 05:54:29;;;;;;;7.82;3.60;;;15.10;99.90;;;;;;5035925;28;20490;-69
2022/06/20 05:57:00;;;;;;;10.88;3.20;;;15.20;99.90;;;;;;5055105;28;20069;-69
2022/06/20 05:59:56;;;;;;;9.18;3.55;;;15.30;99.90;;;;;;5036888;28;20045;-69
2022/06/20 06:02:40;;;;;;;11.07;3.65;;;;;;;;;;5057090;28;20036;-69
2022/06/20 06:05:24;;;;;;;13.32;3.58;;;15.50;99.90;;;;;;5052728;28;20371;-69
2022/06/20 06:07:56;;;;;;;9.15;3.10;;;;;;;;;;5054882;28;20389;-68
2022/06/20 06:10:22;;;;;;;11.18;2.97;;;;;;;;;;5049531;28;20075;-69
2022/06/20 06:13:11;;;;;;;10.60;3.17;;;15.90;99.90;;;;;;5050382;28;20048;-69
2022/06/20 06:16:46;;;;;;;9.73;3.42;;;;;;;;;;5053069;28;20386;-69
2022/06/20 06:18:27;;;;;;;10.85;2.72;;;;;;;;;;5050451;28;20114;-68
2022/06/20 06:20:53;;;;;;;8.02;2.60;;;;;;;;;;5049587;28;20123;-73
2022/06/20 06:23:19;;;;;;;8.13;3.30;;;;;;;;;;5051962;28;20099;-70
2022/06/20 06:25:45;;;;;;;12.60;2.72;;;;;;;;;;5044999;28;20037;-71
2022/06/20 06:28:19;;;;;;;8.20;3.20;;;;;;;;;;5039723;28;20045;-72
2022/06/20 06:30:45;;;;;;;7.40;2.38;;;;;;;;;;5044143;28;20045;-72
2022/06/20 06:33:22;;;;;;;14.48;3.67;;;;;;;;;;5048741;28;20501;-72
2022/06/20 06:36:14;;;;;;;12.98;2.83;;;;;;;;;;5042075;28;20051;-72
2022/06/20 06:38:40;;;;;;;7.60;2.50;;;;;;;;;;5034210;28;20044;-72
2022/06/20 06:41:13;;;;;;;8.50;3.08;;;;;;;;;;5039907;28;20041;-72
2022/06/20 06:47:02;;;;;;;10.43;3.67;;;;;;;;;;5046987;28;20052;-72
2022/06/20 06:49:37;;;;;;;8.77;2.83;;;;;;;;;;5061223;28;20114;-70
2022/06/20 06:52:03;;;;;;;;;;;;;;;;;;5051176;28;20045;-70
2022/06/20 06:54:49;;;;;;;8.77;2.72;;;;;;;;;;5064487;28;19946;-70
2022/06/20 06:57:21;;;;;;;9.60;2.65;;;;;;;;;;5040900;28;20052;-72
2022/06/20 07:00:05;;;;;;;6.95;2.03;;;16.60;99.90;;;;;;5036138;28;20048;-71
2022/06/20 07:02:52;;;;;;;5.93;1.83;;;;;;;;;;5068481;28;20040;-71
2022/06/20 07:05:34;;;;;;;6.80;1.95;;;16.80;99.90;;;;;;5060897;28;20056;-70
2022/06/20 07:08:11;;;;;;;7.80;1.80;;;16.60;99.90;;;;;;5039379;28;20108;-68
2022/06/20 07:10:46;;;;;;;5.95;1.85;;;16.50;99.90;;;;;;5052005;28;20055;-69
2022/06/20 07:13:40;;;;;;;7.03;2.00;;;16.60;99.90;;;;;;5039112;28;20397;-70
2022/06/20 07:16:26;;;;;;;7.32;2.10;;;16.30;99.90;;;;;;5062628;28;20097;-70
2022/06/20 07:18:55;;;;;;;6.20;1.80;;;16.10;99.90;;;;;;5042804;28;20041;-69
2022/06/20 07:21:23;;;;;;;5.68;2.00;;;16.10;99.90;;;;;;5059042;28;20044;-70
2022/06/20 07:23:58;;;;;;;5.85;2.17;;;16.00;99.90;;;;;;5049435;28;20083;-70
2022/06/20 07:26:25;;;;;;;;;;;16.10;99.90;;;;;;5051565;28;20052;-70
2022/06/20 07:29:07;;;;;;;7.03;2.22;;;16.10;99.90;;;;;;5032347;28;19971;-70
2022/06/20 07:31:44;;;;;;;6.70;1.80;;;16.20;99.90;;;;;;5039985;28;20516;-70
2022/06/20 07:34:34;;;;;;;6.88;2.25;;;16.20;99.90;;;;;;5047252;28;20037;-71
2022/06/20 07:37:13;;;;;;;4.90;2.03;;;16.30;99.90;;;;;;5041620;28;20038;-71
2022/06/20 07:40:00;;;;;;;7.75;2.38;;;16.30;99.90;;;;;;5043368;28;20521;-70
2022/06/20 07:42:36;;;;;;;6.47;2.42;;;16.50;99.90;;;;;;5040875;28;20080;-71
2022/06/20 07:45:23;;;;;;;4.72;1.92;;;16.40;99.90;;;;;;5053308;28;20489;-70
2022/06/20 07:47:56;;;;;;;5.45;2.05;;;16.40;99.90;;;;;;5043272;28;20040;-67
2022/06/20 07:50:37;;;;;;;9.98;2.30;;;16.40;99.90;;;;;;5062563;28;20132;-74
2022/06/20 07:53:12;;;;;;;5.78;1.73;;;16.50;99.90;;;;;;5065292;28;21011;-70
2022/06/20 07:55:43;;;;;;;6.15;1.88;;;16.60;99.90;;;;;;5073553;28;20037;-69
2022/06/20 07:58:28;;;;;;;5.20;2.42;;;16.60;99.90;;;;;;5070975;28;20124;-68
2022/06/20 08:00:55;;;;;;;5.95;2.30;;;;;;;;;;5071453;28;20086;-67
2022/06/20 08:03:41;;;;;;;8.25;2.70;;;17.00;99.90;;;;;;5071186;28;20551;-67
2022/06/20 08:06:24;;;;;;;9.55;2.70;;;17.00;99.90;;;;;;5070675;28;20411;-68
2022/06/20 08:08:56;;;;;;;8.95;2.50;;;17.00;99.90;;;;;;5038895;28;20491;-71
2022/06/20 08:12:15;;;;;;;8.02;2.45;;;16.60;99.90;;;;;;5065869;28;20036;-71
2022/06/20 08:14:53;;;;;;;6.88;2.70;;;16.20;99.90;;;;;;5047572;28;20059;-70
2022/06/20 08:17:19;;;;;;;6.85;2.05;;;16.60;99.90;;;;;;5039454;28;20076;-71
2022/06/20 08:19:45;;;;;;;8.15;2.47;;;16.70;99.90;;;;;;5063613;28;20071;-71
2022/06/20 08:22:22;;;;;;;14.95;2.75;;;17.00;99.90;;;;;;5054710;28;20790;-70
2022/06/20 08:24:57;;;;;;;5.78;2.10;;;17.20;99.90;;;;;;5059386;28;20034;-67
2022/06/20 08:27:46;;;;;;;5.82;2.38;;;17.20;99.90;;;;;;5064201;28;20047;-69
2022/06/20 08:30:17;;;;;;;10.32;2.60;;;17.30;99.90;;;;;;5033184;28;20068;-70
2022/06/20 08:32:55;;;;;;;10.18;2.92;;;17.50;99.90;;;;;;5048348;28;20037;-68
2022/06/20 08:35:27;;;;;;;5.70;2.30;;;17.40;99.90;;;;;;5051542;28;20032;-69
2022/06/20 08:38:17;;;;;;;9.25;3.58;;;17.20;99.90;;;;;;5039659;28;20451;-70
2022/06/20 08:40:49;;;;;;;13.02;3.00;;;;;;;;;;5030933;28;20037;-70
2022/06/20 08:43:49;;;;;;;8.40;2.67;;;17.10;99.90;;;;;;5032959;28;20122;-70
2022/06/20 08:46:55;;;;;;;11.13;2.78;;;17.00;99.90;;;;;;5033669;28;20061;-70
2022/06/20 08:49:45;;;;;;;7.97;2.42;;;17.00;99.90;;;;;;5036297;28;20049;-71
2022/06/20 08:52:16;;;;;;;8.60;3.35;;;17.30;99.90;;;;;;5030944;28;20045;-71
2022/06/20 08:55:15;;;;;;;12.07;2.70;;;17.60;99.90;;;;;;5039505;28;20048;-71
2022/06/20 08:57:50;;;;;;;5.00;2.20;;;;;;;;;;5050982;28;20457;-70
2022/06/20 09:00:31;;;;;;;7.65;2.20;;;17.00;99.90;;;;;;5052595;28;20052;-70
2022/06/20 09:03:43;;;;;;;4.57;1.88;;;16.90;99.90;;;;;;5050230;28;20393;-72
2022/06/20 09:06:24;;;;;;;9.10;2.80;;;17.10;99.90;;;;;;4979250;28;20056;-69
2022/06/20 09:09:27;;;;;;;7.60;2.10;;;17.00;99.90;;;;;;5033526;28;20043;-69
2022/06/20 09:11:59;;;;;;;8.02;1.75;;;17.40;99.90;;;;;;5049397;28;20102;-68
2022/06/20 09:14:24;;;;;;;4.55;1.67;;;17.00;99.90;;;;;;5021029;28;20129;-71
2022/06/20 09:17:25;;;;;;;7.13;2.03;;;17.30;99.90;;;;;;5029689;28;20113;-70
2022/06/20 09:19:54;;;;;;;4.78;1.60;;;17.50;99.90;;;;;;5030238;28;20044;-71
2022/06/20 09:22:44;;;;;;;7.30;1.88;;;17.60;99.90;;;;;;5042318;28;20044;-69
2022/06/20 09:25:35;;;;;;;7.32;2.00;;;17.50;99.90;;;;;;5033956;28;20478;-68
2022/06/20 09:28:23;;;;;;;6.95;2.00;;;17.30;99.90;;;;;;5034075;28;20120;-67
2022/06/20 09:30:55;;;;;;;7.78;2.72;;;17.20;99.90;;;;;;5053467;28;20056;-67
2022/06/20 09:33:44;;;;;;;13.68;2.85;;;17.00;99.90;;;;;;5054900;28;20094;-66
2022/06/20 09:36:19;;;;;;;10.23;1.90;;;17.10;99.90;;;;;;5054080;28;20033;-69
2022/06/20 09:39:07;;;;;;;5.72;1.85;;;17.40;99.90;;;;;;5055655;28;20151;-69
2022/06/20 09:41:43;;;;;;;4.63;1.63;;;17.50;99.90;;;;;;5055729;28;20398;-67
2022/06/20 09:44:17;;;;;;;5.13;2.15;;;17.60;99.90;;;;;;5053380;28;20053;-71
2022/06/20 09:46:58;;;;;;;7.50;2.03;;;17.70;99.90;;;;;;5023353;28;20052;-72
2022/06/20 09:49:33;;;;;;;5.47;2.17;;;17.80;99.90;;;;;;5055676;28;20489;-71
2022/06/20 09:52:05;;;;;;;7.03;2.55;;;;;;;;;;5053246;28;20053;-72
2022/06/20 09:54:50;;;;;;;6.00;1.95;;;;;;;;;;5055868;28;20064;-72
2022/06/20 09:57:16;;;;;;;5.43;1.73;;;;;;;;;;5054783;28;20402;-72
2022/06/20 09:59:55;;;;;;;6.75;2.05;;;;;;;;;;5056010;28;20041;-73
2022/06/20 10:02:21;;;;;;;9.20;2.42;;;;;;;;;;5049281;28;20041;-71
2022/06/20 10:04:47;;;;;;;9.20;2.17;;;;;;;;;;5035839;28;20128;-71
2022/06/20 10:07:16;;;;;;;5.60;2.70;;;;;;;;;;5036442;28;20450;-72
2022/06/20 10:09:42;;;;;;;6.30;2.25;;;;;;;;;;5018491;28;20034;-73
2022/06/20 10:12:37;;;;;;;10.02;2.45;;;18.40;99.90;;;;;;5023589;28;20040;-69
2022/06/20 10:15:22;;;;;;;5.53;2.20;;;18.30;99.90;;;;;;4998857;28;20046;-69
2022/06/20 10:18:01;;;;;;;8.38;2.13;;;18.40;99.90;;;;;;5044015;28;20037;-69
2022/06/20 10:20:55;;;;;;;7.65;2.78;;;18.10;99.90;;;;;;5053376;28;20466;-72
2022/06/20 10:23:42;;;;;;;8.48;2.83;;;18.00;99.90;;;;;;5034301;28;20084;-69
2022/06/20 10:26:30;;;;;;;5.53;2.30;;;19.70;99.90;;;;;;5033010;28;20506;-68
2022/06/20 10:29:09;;;;;;;9.23;2.50;;;;;;;;;;5050613;28;20542;-70
2022/06/20 10:31:43;;;;;;;5.60;2.58;;;;;;;;;;5051789;28;20084;-69
2022/06/20 10:34:10;;;;;;;7.63;2.30;;;;;;;;;;5041585;28;20033;-69
2022/06/20 10:37:02;;;;;;;9.52;2.53;;;;;;;;;;5055177;28;20041;-70
2022/06/20 10:39:47;;;;;;;6.82;2.33;;;;;;;;;;5052640;28;20072;-71
2022/06/20 10:42:30;;;;;;;11.00;3.58;;;17.70;99.90;;;;;;5053523;28;20409;-71
2022/06/20 10:45:46;;;;;;;8.93;2.55;;;17.60;99.90;;;;;;5053687;28;20389;-71
2022/06/20 10:48:12;;;;;;;6.53;2.38;;;;;;;;;;5033990;28;20064;-66
2022/06/20 10:50:41;;;;;;;8.73;3.08;;;;;;;;;;5032302;28;20094;-70
2022/06/20 10:53:30;;;;;;;8.73;3.85;;;;;;;;;;5036114;28;20037;-69
2022/06/20 10:56:20;;;;;;;6.63;2.30;;;;;;;;;;5035008;28;20037;-70
2022/06/20 10:59:01;;;;;;;7.75;2.70;;;;;;;;;;5053926;28;20043;-70
2022/06/20 11:01:47;;;;;;;6.18;2.35;;;;;;;;;;5052193;28;20050;-70
2022/06/20 11:04:13;;;;;;;6.72;2.58;;;;;;;;;;5044695;28;20210;-69
2022/06/20 11:07:01;;;;;;;6.15;2.25;;;18.20;99.90;;;;;;5038100;28;20548;-69
2022/06/20 11:09:32;;;;;;;5.75;2.28;;;18.10;99.90;;;;;;5030634;28;20041;-70
2022/06/20 11:12:29;;;;;;;6.72;2.17;;;18.10;99.90;;;;;;5042821;28;20045;-70
2022/06/20 11:15:11;;;;;;;4.95;2.33;;;;;;;;;;5041577;28;20060;-70
2022/06/20 11:17:45;;;;;;;7.85;2.50;;;;;;;;;;5045788;28;20037;-69
2022/06/20 11:20:11;;;;;;;6.13;2.10;;;;;;;;;;5048274;28;20098;-70
2022/06/20 11:22:41;;;;;;;8.40;2.80;;;;;;;;;;5030257;28;20044;-70
2022/06/20 11:25:25;;;;;;;4.85;2.20;;;;;;;;;;5035629;28;20128;-69
2022/06/20 11:28:24;;;;;;;11.88;2.60;;;;;;;;;;5049641;28;20723;-69
2022/06/20 11:30:56;;;;;;;6.38;2.20;;;;;;;;;;4996690;28;20073;-69
2022/06/20 11:33:22;;;;;;;6.07;2.00;;;;;;;;;;5036404;28;20033;-69
2022/06/20 11:36:02;;;;;;;6.72;2.22;;;;;;;;;;5017738;28;20435;-69
2022/06/20 11:38:33;;;;;;;7.10;2.75;;;;;;;;;;5030436;28;20040;-69
2022/06/20 11:41:01;;;;;;;6.10;2.08;;;;;;;;;;5045053;28;20075;-69
2022/06/20 11:43:29;;;;;;;7.50;2.47;;;;;;;;;;5046886;28;20896;-70
2022/06/20 11:46:16;;;;;;;7.72;2.67;;;;;;;;;;5042670;28;20060;-69
2022/06/20 11:48:46;;;;;;;6.40;2.03;;;;;;;;;;5025342;28;20044;-69
2022/06/20 11:51:17;;;;;;;7.55;2.30;;;;;;;;;;5050687;28;20045;-71
2022/06/20 11:53:52;;;;;;;4.55;1.85;;;;;;;;;;5036414;28;20059;-68
2022/06/20 11:56:41;;;;;;;5.38;1.85;;;;;;;;;;5037693;28;20441;-68
2022/06/20 11:59:13;;;;;;;5.97;2.88;;;;;;;;;;5046100;28;20045;-68
2022/06/20 12:02:15;;;;;;;5.80;1.83;;;18.10;99.90;;;;;;5046271;28;20044;-68
2022/06/20 12:04:53;;;;;;;5.18;2.42;;;18.40;99.90;;;;;;5018397;28;20037;-70
2022/06/20 12:07:31;;;;;;;6.13;2.17;;;18.40;99.90;;;;;;5034884;28;20087;-67
2022/06/20 12:09:59;;;;;;;5.75;2.35;;;18.30;99.90;;;;;;5031353;28;20049;-71
2022/06/20 12:12:36;;;;;;;6.53;2.35;;;18.20;99.90;;;;;;5047577;28;20040;-71
2022/06/20 12:15:23;;;;;;;6.28;2.42;;;18.30;99.90;;;;;;5046425;28;20359;-67
2022/06/20 12:18:24;;;;;;;7.60;1.92;;;18.30;99.90;;;;;;5057048;28;20040;-68
2022/06/20 12:24:06;;;;;;;6.78;1.92;;;17.80;99.90;;;;;;5030165;28;20048;-68
2022/06/20 12:26:35;;;;;;;5.03;2.08;;;17.50;99.90;;;;;;5018179;28;20033;-68
2022/06/20 12:29:08;;;;;;;7.50;2.45;;;17.60;99.90;;;;;;5042078;28;20080;-70
2022/06/20 12:31:37;;;;;;;5.18;1.90;;;17.80;99.90;;;;;;5041216;28;20042;-72
2022/06/20 12:34:03;;;;;;;5.60;2.35;;;17.70;99.90;;;;;;5050150;28;20159;-69
2022/06/20 12:36:40;;;;;;;6.03;2.20;;;17.80;99.90;;;;;;5051142;28;20118;-68
2022/06/20 12:39:31;;;;;;;7.65;2.30;;;18.00;99.90;;;;;;5062260;28;20040;-68
2022/06/20 12:42:17;;;;;;;8.38;2.33;;;18.00;99.90;;;;;;5029284;28;20513;-69
2022/06/20 12:44:49;;;;;;;7.15;2.20;;;18.00;99.90;;;;;;5036944;28;20085;-68
2022/06/20 12:47:29;;;;;;;4.00;1.60;;;17.90;99.90;;;;;;5049950;28;20164;-68
2022/06/20 12:50:05;;;;;;;5.28;1.95;;;18.10;99.90;;;;;;5052705;28;20470;-68
2022/06/20 12:52:46;;;;;;;9.77;2.30;;;18.30;99.90;;;;;;5021105;28;20048;-68
2022/06/20 12:55:24;;;;;;;4.78;2.15;;;18.50;99.90;;;;;;5061699;28;20105;-69
2022/06/20 12:58:21;;;;;;;5.75;1.88;;;18.70;99.90;;;;;;5054998;28;20530;-68
2022/06/20 13:01:10;;;;;;;5.72;2.22;;;18.80;99.90;;;;;;5046521;28;20047;-72
2022/06/20 13:04:03;;;;;;;5.13;2.10;;;18.60;99.90;;;;;;5055174;28;20044;-69
2022/06/20 13:06:47;;;;;;;5.60;2.10;;;18.20;99.90;;;;;;5047657;28;20134;-66
2022/06/20 13:09:21;;;;;;;5.70;2.58;;;18.00;99.90;;;;;;5047629;28;20072;-66
2022/06/20 13:12:16;;;;;;;5.72;2.63;;;18.10;99.90;;;;;;5047892;28;20052;-66
2022/06/20 13:15:23;;;;;;;7.78;2.35;;;18.40;99.90;;;;;;5029462;28;20045;-66
2022/06/20 13:18:07;;;;;;;5.15;1.77;;;18.30;99.90;;;;;;4982748;28;20050;-70
2022/06/20 13:20:46;;;;;;;6.03;1.90;;;18.20;99.90;;;;;;5026487;28;20053;-69
2022/06/20 13:23:41;;;;;;;4.22;1.75;;;18.20;99.90;;;;;;5030365;28;20445;-71
2022/06/20 13:26:18;;;;;;;5.65;1.83;;;18.30;99.90;;;;;;5032170;28;20080;-68
2022/06/20 13:29:05;;;;;;;7.57;1.90;;;18.50;99.90;;;;;;5028890;28;20136;-66
2022/06/20 13:31:39;;;;;;;2.85;1.70;;;18.60;99.90;;;;;;5042298;28;20477;-65
2022/06/20 13:34:22;;;;;;;7.05;1.90;;;18.80;99.50;;;;;;5028498;28;20426;-67
2022/06/20 13:37:22;;;;;;;3.80;1.77;;;18.80;99.00;;;;;;5042246;28;20048;-66
2022/06/20 13:39:50;;;;;;;5.80;2.05;;;18.90;98.50;;;;;;5049037;28;20286;-72
2022/06/20 13:42:22;;;;;;;7.60;2.33;;;18.70;98.80;;;;;;5046859;28;20076;-68
2022/06/20 13:44:57;;;;;;;4.57;2.08;;;18.50;99.90;;;;;;5029494;28;20126;-69
2022/06/20 13:47:26;;;;;;;7.38;2.15;;;18.40;99.90;;;;;;5029715;28;20107;-71
2022/06/20 13:50:14;;;;;;;8.18;2.70;;;18.50;99.90;;;;;;5027461;28;20194;-73
2022/06/20 13:53:09;;;;;;;7.30;2.20;;;18.50;99.90;;;;;;5029190;28;20137;-72
2022/06/20 13:55:45;;;;;;;5.70;2.70;;;18.20;99.90;;;;;;5008799;28;20148;-66
2022/06/20 13:58:14;;;;;;;6.53;2.30;;;;;;;;;;5028840;28;20052;-66
2022/06/20 14:00:41;;;;;;;5.47;2.20;;;;;;;;;;5037456;28;20037;-66
2022/06/20 14:03:10;;;;;;;9.38;2.58;;;;;;;;;;5044033;28;20088;-67
2022/06/20 14:05:37;;;;;;;6.53;1.90;;;18.20;99.90;;;;;;5041572;28;20553;-67
2022/06/20 14:08:08;;;;;;;4.25;1.77;;;18.30;99.90;;;;;;5046777;28;20128;-67
2022/06/20 14:10:43;;;;;;;4.30;1.70;;;18.50;99.90;;;;;;5035074;28;20037;-68
2022/06/20 14:13:26;;;;;;;5.97;1.88;;;18.80;99.90;;;;;;5055047;28;20055;-66
2022/06/20 14:15:54;;;;;;;7.00;2.10;;;18.90;99.90;;;;;;5055921;28;20102;-70
2022/06/20 14:18:25;;;;;;;8.38;2.03;;;19.30;99.90;;;;;;5053555;28;20102;-74
2022/06/20 14:21:08;;;;;;;6.93;2.78;;;19.20;99.90;;;;;;5065018;28;20484;-73
2022/06/20 14:23:36;;;;;;;4.85;1.88;;;19.00;99.90;;;;;;5056853;28;20119;-75
2022/06/20 14:26:24;;;;;;;6.18;2.10;;;;;;;;;;5024607;28;20049;-74
2022/06/20 14:28:50;;;;;;;7.03;2.25;;;18.50;99.90;;;;;;5043876;28;20051;-78
2022/06/20 14:31:27;;;;;;;6.18;2.08;;;18.60;99.90;;;;;;5051834;28;20516;-71